sensor_id;sensor_type;location;lat;lon;timestamp;P1;durP1;ratioP1;P2;durP2;ratioP2
14681;SDS011;7429;52.498;13.480;2023-10-13T00:00:30;18.37;;;12.50;;
14681;SDS011;7429;52.498;13.480;2023-10-13T00:03:38;18.70;;;13.27;;
14681;SDS011;7429;52.498;13.480;2023-10-13T00:07:01;18.87;;;12.47;;
14681;SDS011;7429;52.498;13.480;2023-10-13T00:10:24;21.03;;;11.87;;
14681;SDS011;7429;52.498;13.480;2023-10-13T00:13:27;19.20;;;12.10;;
14681;SDS011;7429;52.498;13.480;2023-10-13T00:16:42;15.47;;;11.37;;
14681;SDS011;7429;52.498;13.480;2023-10-13T00:20:02;14.40;;;9.70;;
14681;SDS011;7429;52.498;13.480;2023-10-13T00:23:14;12.13;;;10.90;;
14681;SDS011;7429;52.498;13.480;2023-10-13T00:26:22;19.47;;;11.80;;
14681;SDS011;7429;52.498;13.480;2023-10-13T00:29:32;14.83;;;8.53;;
14681;SDS011;7429;52.498;13.480;2023-10-13T00:32:38;11.50;;;10.37;;
14681;SDS011;7429;52.498;13.480;2023-10-13T00:35:44;8.63;;;6.90;;
14681;SDS011;7429;52.498;13.480;2023-10-13T00:38:50;8.33;;;6.87;;
14681;SDS011;7429;52.498;13.480;2023-10-13T00:41:54;11.83;;;5.57;;
14681;SDS011;7429;52.498;13.480;2023-10-13T00:45:00;8.07;;;5.67;;
14681;SDS011;7429;52.498;13.480;2023-10-13T00:48:03;10.83;;;6.73;;
14681;SDS011;7429;52.498;13.480;2023-10-13T00:51:15;9.57;;;7.87;;
14681;SDS011;7429;52.498;13.480;2023-10-13T00:54:34;12.73;;;8.20;;
14681;SDS011;7429;52.498;13.480;2023-10-13T00:57:39;16.10;;;15.00;;
14681;SDS011;7429;52.498;13.480;2023-10-13T01:00:43;11.40;;;9.13;;
14681;SDS011;7429;52.498;13.480;2023-10-13T01:03:49;11.57;;;10.67;;
14681;SDS011;7429;52.498;13.480;2023-10-13T01:06:57;9.33;;;6.50;;
14681;SDS011;7429;52.498;13.480;2023-10-13T01:10:02;8.17;;;7.30;;
14681;SDS011;7429;52.498;13.480;2023-10-13T01:13:08;12.07;;;6.73;;
14681;SDS011;7429;52.498;13.480;2023-10-13T01:16:13;7.43;;;6.37;;
14681;SDS011;7429;52.498;13.480;2023-10-13T01:19:18;11.60;;;6.43;;
14681;SDS011;7429;52.498;13.480;2023-10-13T01:22:26;8.63;;;7.73;;
14681;SDS011;7429;52.498;13.480;2023-10-13T01:25:31;9.30;;;8.40;;
14681;SDS011;7429;52.498;13.480;2023-10-13T01:28:35;10.73;;;6.40;;
14681;SDS011;7429;52.498;13.480;2023-10-13T01:31:45;11.17;;;6.67;;
14681;SDS011;7429;52.498;13.480;2023-10-13T01:34:49;8.27;;;6.20;;
14681;SDS011;7429;52.498;13.480;2023-10-13T01:37:57;10.23;;;8.67;;
14681;SDS011;7429;52.498;13.480;2023-10-13T01:41:02;11.43;;;10.00;;
14681;SDS011;7429;52.498;13.480;2023-10-13T01:44:10;12.83;;;7.73;;
14681;SDS011;7429;52.498;13.480;2023-10-13T01:47:14;9.87;;;6.83;;
14681;SDS011;7429;52.498;13.480;2023-10-13T01:50:18;10.93;;;8.47;;
14681;SDS011;7429;52.498;13.480;2023-10-13T01:53:22;15.50;;;9.80;;
14681;SDS011;7429;52.498;13.480;2023-10-13T01:56:26;12.40;;;10.00;;
14681;SDS011;7429;52.498;13.480;2023-10-13T01:59:31;14.43;;;9.87;;
14681;SDS011;7429;52.498;13.480;2023-10-13T02:02:35;18.30;;;9.43;;
14681;SDS011;7429;52.498;13.480;2023-10-13T02:05:39;11.60;;;9.37;;
14681;SDS011;7429;52.498;13.480;2023-10-13T02:08:48;14.73;;;7.70;;
14681;SDS011;7429;52.498;13.480;2023-10-13T02:11:59;13.53;;;8.17;;
14681;SDS011;7429;52.498;13.480;2023-10-13T02:15:03;16.43;;;8.80;;
14681;SDS011;7429;52.498;13.480;2023-10-13T02:18:07;16.13;;;9.17;;
14681;SDS011;7429;52.498;13.480;2023-10-13T02:21:10;13.77;;;9.67;;
14681;SDS011;7429;52.498;13.480;2023-10-13T02:24:16;15.83;;;8.27;;
14681;SDS011;7429;52.498;13.480;2023-10-13T02:27:23;17.00;;;9.50;;
14681;SDS011;7429;52.498;13.480;2023-10-13T02:30:26;10.30;;;9.20;;
14681;SDS011;7429;52.498;13.480;2023-10-13T02:33:29;13.17;;;9.77;;
14681;SDS011;7429;52.498;13.480;2023-10-13T02:36:31;15.00;;;13.20;;
14681;SDS011;7429;52.498;13.480;2023-10-13T02:39:48;17.20;;;11.07;;
14681;SDS011;7429;52.498;13.480;2023-10-13T02:42:53;14.90;;;10.70;;
14681;SDS011;7429;52.498;13.480;2023-10-13T02:45:55;16.60;;;9.30;;
14681;SDS011;7429;52.498;13.480;2023-10-13T02:49:01;16.17;;;10.27;;
14681;SDS011;7429;52.498;13.480;2023-10-13T02:52:12;12.30;;;9.53;;
14681;SDS011;7429;52.498;13.480;2023-10-13T02:55:15;15.33;;;9.60;;
14681;SDS011;7429;52.498;13.480;2023-10-13T02:58:28;12.23;;;9.68;;
14681;SDS011;7429;52.498;13.480;2023-10-13T03:01:39;15.17;;;12.10;;
14681;SDS011;7429;52.498;13.480;2023-10-13T03:04:43;13.57;;;11.20;;
14681;SDS011;7429;52.498;13.480;2023-10-13T03:07:47;19.67;;;12.20;;
14681;SDS011;7429;52.498;13.480;2023-10-13T03:10:52;18.87;;;11.13;;
14681;SDS011;7429;52.498;13.480;2023-10-13T03:13:57;15.77;;;10.93;;
14681;SDS011;7429;52.498;13.480;2023-10-13T03:17:01;19.13;;;11.93;;
14681;SDS011;7429;52.498;13.480;2023-10-13T03:20:08;13.60;;;11.43;;
14681;SDS011;7429;52.498;13.480;2023-10-13T03:23:13;12.93;;;10.23;;
14681;SDS011;7429;52.498;13.480;2023-10-13T03:26:15;21.83;;;13.17;;
14681;SDS011;7429;52.498;13.480;2023-10-13T03:29:24;17.93;;;12.83;;
14681;SDS011;7429;52.498;13.480;2023-10-13T03:32:32;17.55;;;13.20;;
14681;SDS011;7429;52.498;13.480;2023-10-13T03:35:36;20.90;;;13.73;;
14681;SDS011;7429;52.498;13.480;2023-10-13T03:38:44;16.87;;;12.57;;
14681;SDS011;7429;52.498;13.480;2023-10-13T03:41:57;18.80;;;12.23;;
14681;SDS011;7429;52.498;13.480;2023-10-13T03:45:02;19.77;;;12.70;;
14681;SDS011;7429;52.498;13.480;2023-10-13T03:48:12;19.80;;;14.50;;
14681;SDS011;7429;52.498;13.480;2023-10-13T03:51:30;20.63;;;13.50;;
14681;SDS011;7429;52.498;13.480;2023-10-13T03:54:34;26.73;;;20.40;;
14681;SDS011;7429;52.498;13.480;2023-10-13T03:57:37;21.53;;;17.10;;
14681;SDS011;7429;52.498;13.480;2023-10-13T04:00:43;26.40;;;17.60;;
14681;SDS011;7429;52.498;13.480;2023-10-13T04:03:46;24.33;;;19.97;;
14681;SDS011;7429;52.498;13.480;2023-10-13T04:07:05;23.00;;;18.30;;
14681;SDS011;7429;52.498;13.480;2023-10-13T04:10:41;27.50;;;24.67;;
14681;SDS011;7429;52.498;13.480;2023-10-13T04:14:00;26.73;;;22.47;;
14681;SDS011;7429;52.498;13.480;2023-10-13T04:17:26;26.43;;;22.53;;
14681;SDS011;7429;52.498;13.480;2023-10-13T04:20:31;27.27;;;21.73;;
14681;SDS011;7429;52.498;13.480;2023-10-13T04:23:39;25.27;;;22.67;;
14681;SDS011;7429;52.498;13.480;2023-10-13T04:26:59;26.60;;;22.93;;
14681;SDS011;7429;52.498;13.480;2023-10-13T04:30:16;32.43;;;24.97;;
14681;SDS011;7429;52.498;13.480;2023-10-13T04:33:30;31.53;;;28.33;;
14681;SDS011;7429;52.498;13.480;2023-10-13T04:36:51;25.53;;;22.83;;
14681;SDS011;7429;52.498;13.480;2023-10-13T04:40:12;30.87;;;27.03;;
14681;SDS011;7429;52.498;13.480;2023-10-13T04:44:39;29.20;;;26.15;;
14681;SDS011;7429;52.498;13.480;2023-10-13T04:48:37;31.48;;;22.77;;
14681;SDS011;7429;52.498;13.480;2023-10-13T04:51:43;25.35;;;22.17;;
14681;SDS011;7429;52.498;13.480;2023-10-13T04:54:59;32.00;;;23.07;;
14681;SDS011;7429;52.498;13.480;2023-10-13T04:58:19;28.50;;;20.70;;
14681;SDS011;7429;52.498;13.480;2023-10-13T05:01:47;28.50;;;21.80;;
14681;SDS011;7429;52.498;13.480;2023-10-13T05:05:10;30.50;;;27.08;;
14681;SDS011;7429;52.498;13.480;2023-10-13T05:08:44;27.42;;;22.35;;
14681;SDS011;7429;52.498;13.480;2023-10-13T05:12:23;29.30;;;25.30;;
14681;SDS011;7429;52.498;13.480;2023-10-13T05:16:02;29.20;;;24.13;;
14681;SDS011;7429;52.498;13.480;2023-10-13T05:19:23;25.33;;;21.53;;
14681;SDS011;7429;52.498;13.480;2023-10-13T05:22:49;28.40;;;22.80;;
14681;SDS011;7429;52.498;13.480;2023-10-13T05:26:12;29.23;;;20.50;;
14681;SDS011;7429;52.498;13.480;2023-10-13T05:29:33;27.80;;;23.73;;
14681;SDS011;7429;52.498;13.480;2023-10-13T05:32:54;27.10;;;21.53;;
14681;SDS011;7429;52.498;13.480;2023-10-13T05:36:34;25.03;;;20.67;;
14681;SDS011;7429;52.498;13.480;2023-10-13T05:40:14;25.47;;;20.90;;
14681;SDS011;7429;52.498;13.480;2023-10-13T05:43:35;27.43;;;21.50;;
14681;SDS011;7429;52.498;13.480;2023-10-13T05:46:58;27.10;;;22.23;;
14681;SDS011;7429;52.498;13.480;2023-10-13T05:50:24;26.40;;;20.83;;
14681;SDS011;7429;52.498;13.480;2023-10-13T05:53:45;25.67;;;20.05;;
14681;SDS011;7429;52.498;13.480;2023-10-13T05:57:07;30.40;;;24.40;;
14681;SDS011;7429;52.498;13.480;2023-10-13T06:00:39;24.58;;;19.60;;
14681;SDS011;7429;52.498;13.480;2023-10-13T06:04:01;22.67;;;18.38;;
14681;SDS011;7429;52.498;13.480;2023-10-13T06:07:22;22.42;;;18.13;;
14681;SDS011;7429;52.498;13.480;2023-10-13T06:10:43;26.95;;;19.40;;
14681;SDS011;7429;52.498;13.480;2023-10-13T06:14:06;26.45;;;19.48;;
14681;SDS011;7429;52.498;13.480;2023-10-13T06:17:27;21.42;;;18.70;;
14681;SDS011;7429;52.498;13.480;2023-10-13T06:20:47;23.63;;;18.92;;
14681;SDS011;7429;52.498;13.480;2023-10-13T06:24:08;25.35;;;19.85;;
14681;SDS011;7429;52.498;13.480;2023-10-13T06:27:29;24.08;;;20.20;;
14681;SDS011;7429;52.498;13.480;2023-10-13T06:30:57;22.05;;;19.60;;
14681;SDS011;7429;52.498;13.480;2023-10-13T06:34:03;22.20;;;19.00;;
14681;SDS011;7429;52.498;13.480;2023-10-13T06:37:06;24.13;;;21.63;;
14681;SDS011;7429;52.498;13.480;2023-10-13T06:40:24;24.08;;;19.75;;
14681;SDS011;7429;52.498;13.480;2023-10-13T06:43:36;21.83;;;17.88;;
14681;SDS011;7429;52.498;13.480;2023-10-13T06:46:43;23.83;;;19.73;;
14681;SDS011;7429;52.498;13.480;2023-10-13T06:49:47;23.30;;;17.33;;
14681;SDS011;7429;52.498;13.480;2023-10-13T06:52:53;24.67;;;18.73;;
14681;SDS011;7429;52.498;13.480;2023-10-13T06:55:57;18.88;;;14.32;;
14681;SDS011;7429;52.498;13.480;2023-10-13T06:59:00;17.58;;;15.50;;
14681;SDS011;7429;52.498;13.480;2023-10-13T07:02:11;22.17;;;17.73;;
14681;SDS011;7429;52.498;13.480;2023-10-13T07:05:29;24.70;;;22.20;;
14681;SDS011;7429;52.498;13.480;2023-10-13T07:08:36;22.42;;;19.98;;
14681;SDS011;7429;52.498;13.480;2023-10-13T07:11:40;25.98;;;23.58;;
14681;SDS011;7429;52.498;13.480;2023-10-13T07:14:45;21.08;;;18.90;;
14681;SDS011;7429;52.498;13.480;2023-10-13T07:17:55;22.30;;;19.90;;
14681;SDS011;7429;52.498;13.480;2023-10-13T07:21:01;21.17;;;15.25;;
14681;SDS011;7429;52.498;13.480;2023-10-13T07:24:11;21.65;;;19.50;;
14681;SDS011;7429;52.498;13.480;2023-10-13T07:27:15;28.83;;;26.33;;
14681;SDS011;7429;52.498;13.480;2023-10-13T07:30:24;22.33;;;16.48;;
14681;SDS011;7429;52.498;13.480;2023-10-13T07:33:30;19.65;;;16.23;;
14681;SDS011;7429;52.498;13.480;2023-10-13T07:36:34;14.18;;;12.77;;
14681;SDS011;7429;52.498;13.480;2023-10-13T07:39:41;14.65;;;13.15;;
14681;SDS011;7429;52.498;13.480;2023-10-13T07:42:44;18.52;;;16.52;;
14681;SDS011;7429;52.498;13.480;2023-10-13T07:45:48;16.67;;;14.88;;
14681;SDS011;7429;52.498;13.480;2023-10-13T07:49:01;17.50;;;15.68;;
14681;SDS011;7429;52.498;13.480;2023-10-13T07:52:12;16.42;;;14.77;;
14681;SDS011;7429;52.498;13.480;2023-10-13T07:55:31;16.20;;;14.52;;
14681;SDS011;7429;52.498;13.480;2023-10-13T07:58:35;17.88;;;12.82;;
14681;SDS011;7429;52.498;13.480;2023-10-13T08:01:49;15.15;;;13.63;;
14681;SDS011;7429;52.498;13.480;2023-10-13T08:05:15;13.52;;;12.02;;
14681;SDS011;7429;52.498;13.480;2023-10-13T08:08:28;16.38;;;14.65;;
14681;SDS011;7429;52.498;13.480;2023-10-13T08:11:36;19.10;;;14.75;;
14681;SDS011;7429;52.498;13.480;2023-10-13T08:14:41;13.95;;;12.55;;
14681;SDS011;7429;52.498;13.480;2023-10-13T08:17:46;16.42;;;13.10;;
14681;SDS011;7429;52.498;13.480;2023-10-13T08:20:54;13.70;;;12.32;;
14681;SDS011;7429;52.498;13.480;2023-10-13T08:24:04;18.58;;;13.18;;
14681;SDS011;7429;52.498;13.480;2023-10-13T08:27:10;11.80;;;10.60;;
14681;SDS011;7429;52.498;13.480;2023-10-13T08:30:37;14.23;;;13.05;;
14681;SDS011;7429;52.498;13.480;2023-10-13T08:33:54;17.92;;;16.30;;
14681;SDS011;7429;52.498;13.480;2023-10-13T08:37:09;11.93;;;10.30;;
14681;SDS011;7429;52.498;13.480;2023-10-13T08:40:29;13.88;;;12.05;;
14681;SDS011;7429;52.498;13.480;2023-10-13T08:43:50;11.50;;;10.00;;
14681;SDS011;7429;52.498;13.480;2023-10-13T08:46:55;12.10;;;10.18;;
14681;SDS011;7429;52.498;13.480;2023-10-13T08:50:07;12.55;;;9.48;;
14681;SDS011;7429;52.498;13.480;2023-10-13T08:53:33;10.35;;;8.45;;
14681;SDS011;7429;52.498;13.480;2023-10-13T08:56:47;9.60;;;8.73;;
14681;SDS011;7429;52.498;13.480;2023-10-13T09:00:05;10.73;;;9.13;;
14681;SDS011;7429;52.498;13.480;2023-10-13T09:03:34;10.10;;;9.20;;
14681;SDS011;7429;52.498;13.480;2023-10-13T09:06:50;11.65;;;10.27;;
14681;SDS011;7429;52.498;13.480;2023-10-13T09:10:10;16.63;;;11.02;;
14681;SDS011;7429;52.498;13.480;2023-10-13T09:13:37;12.88;;;9.88;;
14681;SDS011;7429;52.498;13.480;2023-10-13T09:16:46;12.90;;;11.25;;
14681;SDS011;7429;52.498;13.480;2023-10-13T09:20:09;12.55;;;11.25;;
14681;SDS011;7429;52.498;13.480;2023-10-13T09:23:32;10.88;;;9.82;;
14681;SDS011;7429;52.498;13.480;2023-10-13T09:26:47;12.15;;;10.93;;
14681;SDS011;7429;52.498;13.480;2023-10-13T09:29:56;12.05;;;8.95;;
14681;SDS011;7429;52.498;13.480;2023-10-13T09:32:59;12.35;;;9.90;;
14681;SDS011;7429;52.498;13.480;2023-10-13T09:36:06;12.88;;;11.00;;
14681;SDS011;7429;52.498;13.480;2023-10-13T09:39:09;10.90;;;9.35;;
14681;SDS011;7429;52.498;13.480;2023-10-13T09:42:15;10.52;;;8.30;;
14681;SDS011;7429;52.498;13.480;2023-10-13T09:45:19;15.63;;;14.05;;
14681;SDS011;7429;52.498;13.480;2023-10-13T09:48:31;16.85;;;15.60;;
14681;SDS011;7429;52.498;13.480;2023-10-13T09:51:35;15.23;;;11.52;;
14681;SDS011;7429;52.498;13.480;2023-10-13T09:54:38;15.57;;;14.38;;
14681;SDS011;7429;52.498;13.480;2023-10-13T09:57:51;12.18;;;11.07;;
14681;SDS011;7429;52.498;13.480;2023-10-13T10:01:01;11.73;;;9.02;;
14681;SDS011;7429;52.498;13.480;2023-10-13T10:04:10;9.07;;;8.27;;
14681;SDS011;7429;52.498;13.480;2023-10-13T10:07:23;9.90;;;8.90;;
14681;SDS011;7429;52.498;13.480;2023-10-13T10:10:32;14.63;;;10.07;;
14681;SDS011;7429;52.498;13.480;2023-10-13T10:13:57;13.05;;;9.85;;
14681;SDS011;7429;52.498;13.480;2023-10-13T10:17:19;17.35;;;10.18;;
14681;SDS011;7429;52.498;13.480;2023-10-13T10:20:29;15.93;;;10.63;;
14681;SDS011;7429;52.498;13.480;2023-10-13T10:23:51;10.20;;;9.18;;
14681;SDS011;7429;52.498;13.480;2023-10-13T10:26:55;15.93;;;9.00;;
14681;SDS011;7429;52.498;13.480;2023-10-13T10:30:00;13.93;;;9.18;;
14681;SDS011;7429;52.498;13.480;2023-10-13T10:33:06;13.00;;;9.75;;
14681;SDS011;7429;52.498;13.480;2023-10-13T10:36:14;12.18;;;9.88;;
14681;SDS011;7429;52.498;13.480;2023-10-13T10:39:17;12.30;;;10.18;;
14681;SDS011;7429;52.498;13.480;2023-10-13T10:42:22;12.70;;;11.60;;
14681;SDS011;7429;52.498;13.480;2023-10-13T10:45:32;14.68;;;12.82;;
14681;SDS011;7429;52.498;13.480;2023-10-13T10:48:35;10.00;;;9.13;;
14681;SDS011;7429;52.498;13.480;2023-10-13T10:51:41;12.68;;;11.15;;
14681;SDS011;7429;52.498;13.480;2023-10-13T10:54:57;12.32;;;11.13;;
14681;SDS011;7429;52.498;13.480;2023-10-13T10:58:01;12.15;;;8.95;;
14681;SDS011;7429;52.498;13.480;2023-10-13T11:01:12;11.30;;;8.98;;
14681;SDS011;7429;52.498;13.480;2023-10-13T11:04:21;10.35;;;9.32;;
14681;SDS011;7429;52.498;13.480;2023-10-13T11:07:35;9.48;;;8.27;;
14681;SDS011;7429;52.498;13.480;2023-10-13T11:10:45;13.40;;;8.43;;
14681;SDS011;7429;52.498;13.480;2023-10-13T11:13:48;11.00;;;9.82;;
14681;SDS011;7429;52.498;13.480;2023-10-13T11:16:55;12.38;;;11.18;;
14681;SDS011;7429;52.498;13.480;2023-10-13T11:23:54;13.68;;;12.38;;
14681;SDS011;7429;52.498;13.480;2023-10-13T11:26:58;21.10;;;15.25;;
14681;SDS011;7429;52.498;13.480;2023-10-13T11:30:04;15.13;;;13.75;;
14681;SDS011;7429;52.498;13.480;2023-10-13T11:33:17;14.80;;;13.30;;
14681;SDS011;7429;52.498;13.480;2023-10-13T11:36:25;14.20;;;12.77;;
14681;SDS011;7429;52.498;13.480;2023-10-13T11:39:38;15.95;;;14.32;;
14681;SDS011;7429;52.498;13.480;2023-10-13T11:42:44;15.50;;;13.93;;
14681;SDS011;7429;52.498;13.480;2023-10-13T11:45:49;13.07;;;11.80;;
14681;SDS011;7429;52.498;13.480;2023-10-13T11:48:58;14.07;;;11.95;;
14681;SDS011;7429;52.498;13.480;2023-10-13T11:52:06;12.30;;;11.10;;
14681;SDS011;7429;52.498;13.480;2023-10-13T11:55:18;12.73;;;10.15;;
14681;SDS011;7429;52.498;13.480;2023-10-13T11:58:22;17.50;;;9.23;;
14681;SDS011;7429;52.498;13.480;2023-10-13T12:01:25;10.35;;;8.45;;
14681;SDS011;7429;52.498;13.480;2023-10-13T12:04:49;13.07;;;10.02;;
14681;SDS011;7429;52.498;13.480;2023-10-13T12:07:53;10.60;;;8.73;;
14681;SDS011;7429;52.498;13.480;2023-10-13T12:11:05;11.68;;;9.63;;
14681;SDS011;7429;52.498;13.480;2023-10-13T12:14:22;12.52;;;9.55;;
14681;SDS011;7429;52.498;13.480;2023-10-13T12:17:31;16.88;;;10.77;;
14681;SDS011;7429;52.498;13.480;2023-10-13T12:20:38;12.15;;;11.00;;
14681;SDS011;7429;52.498;13.480;2023-10-13T12:23:47;14.40;;;8.63;;
14681;SDS011;7429;52.498;13.480;2023-10-13T12:26:52;11.20;;;8.68;;
14681;SDS011;7429;52.498;13.480;2023-10-13T12:29:58;16.63;;;8.68;;
14681;SDS011;7429;52.498;13.480;2023-10-13T12:33:09;11.95;;;10.75;;
14681;SDS011;7429;52.498;13.480;2023-10-13T12:36:22;11.48;;;8.70;;
14681;SDS011;7429;52.498;13.480;2023-10-13T12:39:33;13.10;;;11.65;;
14681;SDS011;7429;52.498;13.480;2023-10-13T12:42:55;15.02;;;13.52;;
14681;SDS011;7429;52.498;13.480;2023-10-13T12:46:16;14.32;;;12.63;;
14681;SDS011;7429;52.498;13.480;2023-10-13T12:49:42;17.27;;;13.02;;
14681;SDS011;7429;52.498;13.480;2023-10-13T12:53:17;13.38;;;12.00;;
14681;SDS011;7429;52.498;13.480;2023-10-13T12:56:21;17.63;;;10.93;;
14681;SDS011;7429;52.498;13.480;2023-10-13T12:59:27;14.98;;;13.43;;
14681;SDS011;7429;52.498;13.480;2023-10-13T13:02:32;11.35;;;10.02;;
14681;SDS011;7429;52.498;13.480;2023-10-13T13:05:36;13.15;;;11.85;;
14681;SDS011;7429;52.498;13.480;2023-10-13T13:08:51;16.17;;;11.93;;
14681;SDS011;7429;52.498;13.480;2023-10-13T13:11:58;10.25;;;9.25;;
14681;SDS011;7429;52.498;13.480;2023-10-13T13:15:03;13.85;;;11.10;;
14681;SDS011;7429;52.498;13.480;2023-10-13T13:18:10;16.98;;;11.05;;
14681;SDS011;7429;52.498;13.480;2023-10-13T13:21:16;19.77;;;12.98;;
14681;SDS011;7429;52.498;13.480;2023-10-13T13:24:28;19.60;;;11.00;;
14681;SDS011;7429;52.498;13.480;2023-10-13T13:27:34;15.77;;;11.57;;
14681;SDS011;7429;52.498;13.480;2023-10-13T13:30:40;13.43;;;10.88;;
14681;SDS011;7429;52.498;13.480;2023-10-13T13:33:44;12.43;;;9.15;;
14681;SDS011;7429;52.498;13.480;2023-10-13T13:36:47;13.35;;;7.82;;
14681;SDS011;7429;52.498;13.480;2023-10-13T13:39:58;11.25;;;8.75;;
14681;SDS011;7429;52.498;13.480;2023-10-13T13:46:57;13.10;;;8.43;;
14681;SDS011;7429;52.498;13.480;2023-10-13T13:50:04;12.85;;;9.18;;
14681;SDS011;7429;52.498;13.480;2023-10-13T13:53:18;11.30;;;8.63;;
14681;SDS011;7429;52.498;13.480;2023-10-13T13:56:30;14.50;;;9.48;;
14681;SDS011;7429;52.498;13.480;2023-10-13T13:59:39;20.75;;;12.15;;
14681;SDS011;7429;52.498;13.480;2023-10-13T14:02:47;16.85;;;8.95;;
14681;SDS011;7429;52.498;13.480;2023-10-13T14:05:51;15.85;;;8.15;;
14681;SDS011;7429;52.498;13.480;2023-10-13T14:08:57;10.93;;;8.57;;
14681;SDS011;7429;52.498;13.480;2023-10-13T14:12:08;14.05;;;7.88;;
14681;SDS011;7429;52.498;13.480;2023-10-13T14:15:29;14.55;;;8.18;;
14681;SDS011;7429;52.498;13.480;2023-10-13T14:18:34;13.73;;;6.38;;
14681;SDS011;7429;52.498;13.480;2023-10-13T14:21:38;12.13;;;6.72;;
14681;SDS011;7429;52.498;13.480;2023-10-13T14:24:41;10.75;;;6.55;;
14681;SDS011;7429;52.498;13.480;2023-10-13T14:27:50;13.70;;;7.47;;
14681;SDS011;7429;52.498;13.480;2023-10-13T14:30:54;13.65;;;7.57;;
14681;SDS011;7429;52.498;13.480;2023-10-13T14:33:57;10.73;;;7.15;;
14681;SDS011;7429;52.498;13.480;2023-10-13T14:37:00;10.68;;;7.28;;
14681;SDS011;7429;52.498;13.480;2023-10-13T14:40:06;21.52;;;7.55;;
14681;SDS011;7429;52.498;13.480;2023-10-13T14:43:15;13.68;;;6.55;;
14681;SDS011;7429;52.498;13.480;2023-10-13T14:46:18;14.45;;;7.00;;
14681;SDS011;7429;52.498;13.480;2023-10-13T14:49:24;15.20;;;7.30;;
14681;SDS011;7429;52.498;13.480;2023-10-13T14:52:28;13.48;;;7.53;;
14681;SDS011;7429;52.498;13.480;2023-10-13T14:55:33;14.18;;;6.72;;
14681;SDS011;7429;52.498;13.480;2023-10-13T14:58:42;15.50;;;7.90;;
14681;SDS011;7429;52.498;13.480;2023-10-13T15:01:50;16.52;;;7.60;;
14681;SDS011;7429;52.498;13.480;2023-10-13T15:04:53;18.50;;;8.73;;
14681;SDS011;7429;52.498;13.480;2023-10-13T15:07:56;14.68;;;7.10;;
14681;SDS011;7429;52.498;13.480;2023-10-13T15:11:07;15.15;;;8.57;;
14681;SDS011;7429;52.498;13.480;2023-10-13T15:14:15;13.65;;;7.93;;
14681;SDS011;7429;52.498;13.480;2023-10-13T15:17:18;12.85;;;8.32;;
14681;SDS011;7429;52.498;13.480;2023-10-13T15:20:26;16.13;;;8.85;;
14681;SDS011;7429;52.498;13.480;2023-10-13T15:23:29;12.90;;;8.80;;
14681;SDS011;7429;52.498;13.480;2023-10-13T15:26:33;12.15;;;7.93;;
14681;SDS011;7429;52.498;13.480;2023-10-13T15:29:41;16.58;;;8.25;;
14681;SDS011;7429;52.498;13.480;2023-10-13T15:32:52;12.45;;;8.43;;
14681;SDS011;7429;52.498;13.480;2023-10-13T15:36:02;13.02;;;8.95;;
14681;SDS011;7429;52.498;13.480;2023-10-13T15:39:05;17.20;;;8.00;;
14681;SDS011;7429;52.498;13.480;2023-10-13T15:42:10;14.90;;;8.38;;
14681;SDS011;7429;52.498;13.480;2023-10-13T15:45:17;13.82;;;8.70;;
14681;SDS011;7429;52.498;13.480;2023-10-13T15:48:20;16.50;;;8.70;;
14681;SDS011;7429;52.498;13.480;2023-10-13T15:51:26;12.02;;;7.85;;
14681;SDS011;7429;52.498;13.480;2023-10-13T15:54:29;15.93;;;7.05;;
14681;SDS011;7429;52.498;13.480;2023-10-13T15:57:33;15.57;;;8.77;;
14681;SDS011;7429;52.498;13.480;2023-10-13T16:00:39;13.02;;;9.27;;
14681;SDS011;7429;52.498;13.480;2023-10-13T16:03:43;13.20;;;10.20;;
14681;SDS011;7429;52.498;13.480;2023-10-13T16:06:51;16.17;;;8.18;;
14681;SDS011;7429;52.498;13.480;2023-10-13T16:09:54;16.55;;;7.57;;
14681;SDS011;7429;52.498;13.480;2023-10-13T16:13:00;18.25;;;8.30;;
14681;SDS011;7429;52.498;13.480;2023-10-13T16:16:08;16.38;;;7.88;;
14681;SDS011;7429;52.498;13.480;2023-10-13T16:19:18;17.08;;;10.20;;
14681;SDS011;7429;52.498;13.480;2023-10-13T16:22:25;12.82;;;8.35;;
14681;SDS011;7429;52.498;13.480;2023-10-13T16:25:28;16.02;;;9.73;;
14681;SDS011;7429;52.498;13.480;2023-10-13T16:28:31;12.70;;;8.80;;
14681;SDS011;7429;52.498;13.480;2023-10-13T16:31:37;12.20;;;7.45;;
14681;SDS011;7429;52.498;13.480;2023-10-13T16:34:41;9.88;;;6.82;;
14681;SDS011;7429;52.498;13.480;2023-10-13T16:37:46;11.05;;;7.45;;
14681;SDS011;7429;52.498;13.480;2023-10-13T16:40:52;12.30;;;7.68;;
14681;SDS011;7429;52.498;13.480;2023-10-13T16:43:56;15.75;;;8.02;;
14681;SDS011;7429;52.498;13.480;2023-10-13T16:47:06;14.98;;;8.23;;
14681;SDS011;7429;52.498;13.480;2023-10-13T16:50:09;12.77;;;8.82;;
14681;SDS011;7429;52.498;13.480;2023-10-13T16:53:13;13.32;;;8.18;;
14681;SDS011;7429;52.498;13.480;2023-10-13T16:56:16;13.20;;;9.13;;
14681;SDS011;7429;52.498;13.480;2023-10-13T16:59:19;12.50;;;10.35;;
14681;SDS011;7429;52.498;13.480;2023-10-13T17:02:33;12.75;;;9.32;;
14681;SDS011;7429;52.498;13.480;2023-10-13T17:05:43;15.35;;;9.55;;
14681;SDS011;7429;52.498;13.480;2023-10-13T17:08:48;13.00;;;8.63;;
14681;SDS011;7429;52.498;13.480;2023-10-13T17:11:54;19.00;;;10.73;;
14681;SDS011;7429;52.498;13.480;2023-10-13T17:14:57;14.18;;;8.57;;
14681;SDS011;7429;52.498;13.480;2023-10-13T17:18:02;15.98;;;8.90;;
14681;SDS011;7429;52.498;13.480;2023-10-13T17:21:17;13.43;;;9.30;;
14681;SDS011;7429;52.498;13.480;2023-10-13T17:24:23;11.95;;;9.32;;
14681;SDS011;7429;52.498;13.480;2023-10-13T17:27:29;15.73;;;10.35;;
14681;SDS011;7429;52.498;13.480;2023-10-13T17:30:34;14.45;;;9.52;;
14681;SDS011;7429;52.498;13.480;2023-10-13T17:33:38;13.45;;;7.35;;
14681;SDS011;7429;52.498;13.480;2023-10-13T17:36:42;14.40;;;9.20;;
14681;SDS011;7429;52.498;13.480;2023-10-13T17:39:45;12.27;;;9.43;;
14681;SDS011;7429;52.498;13.480;2023-10-13T17:42:50;12.32;;;8.10;;
14681;SDS011;7429;52.498;13.480;2023-10-13T17:45:53;16.05;;;8.55;;
14681;SDS011;7429;52.498;13.480;2023-10-13T17:48:58;14.02;;;9.57;;
14681;SDS011;7429;52.498;13.480;2023-10-13T17:52:03;15.15;;;9.98;;
14681;SDS011;7429;52.498;13.480;2023-10-13T17:55:06;14.80;;;11.35;;
14681;SDS011;7429;52.498;13.480;2023-10-13T17:58:11;14.65;;;9.32;;
14681;SDS011;7429;52.498;13.480;2023-10-13T18:01:15;12.27;;;8.13;;
14681;SDS011;7429;52.498;13.480;2023-10-13T18:04:23;11.10;;;8.70;;
14681;SDS011;7429;52.498;13.480;2023-10-13T18:07:26;16.23;;;7.80;;
14681;SDS011;7429;52.498;13.480;2023-10-13T18:10:29;13.98;;;9.02;;
14681;SDS011;7429;52.498;13.480;2023-10-13T18:13:32;9.93;;;7.10;;
14681;SDS011;7429;52.498;13.480;2023-10-13T18:16:50;11.40;;;9.50;;
14681;SDS011;7429;52.498;13.480;2023-10-13T18:19:57;13.05;;;8.23;;
14681;SDS011;7429;52.498;13.480;2023-10-13T18:23:01;7.95;;;7.15;;
14681;SDS011;7429;52.498;13.480;2023-10-13T18:26:04;12.18;;;7.28;;
14681;SDS011;7429;52.498;13.480;2023-10-13T18:29:07;14.98;;;8.38;;
14681;SDS011;7429;52.498;13.480;2023-10-13T18:32:14;14.55;;;7.30;;
14681;SDS011;7429;52.498;13.480;2023-10-13T18:35:23;14.77;;;7.75;;
14681;SDS011;7429;52.498;13.480;2023-10-13T18:38:43;12.30;;;7.82;;
14681;SDS011;7429;52.498;13.480;2023-10-13T18:42:51;14.50;;;7.13;;
14681;SDS011;7429;52.498;13.480;2023-10-13T18:46:00;9.55;;;8.15;;
14681;SDS011;7429;52.498;13.480;2023-10-13T18:49:08;9.57;;;7.55;;